aviador You're here:

KFEW Decoded Metar

in
Report Time2018-05-21 17:58:00
UTC Time2018-05-21 18:19:08
Flight Rules vfr VFR
Wind290° at 04 kt
W.Rank290° ranks 1
Current wind is below 290° avg. (12.6)
Visibility9999 m
Phenomena:N/A
Clouds:N/A
Expected CloudBase > 7,600 ft AGL from Temp-Dew spread
CeilingNone
Temp21°C
Dew Point02°C (29% RH)
AAT17.9°C
QNH1018 hPa
Raw Report
METAR KFEW 211758Z AUTO 29004KT 10SM CLR 21/02 A3007 RMK AO2 SLP130
T02050015 10207 20031 55002 $=

Extra information for KFEW:More info

Social comments